Throggs Neck, New York
Current Conditions -  °F | °C
As of 9:51 PM on Tuesday 25 Nov 2014 (Local Time) from KLGA Reporting Station
Clear Clear  
Wind Chill: 52°   Ceiling: Unl
Heat Index: 52°   Visibility: 10mi
Dew Point: 28°   Wind: 9mph
Humidity: 40%   Direction: 280°W
Pressure: 30.13"   Gusts: NA
Location:  40.8263°N, 73.8227°W
Report Text: KLGA 260251Z 28008KT 10SM CLR 11/M02 A3013 RMK AO2 SLP201 T01111022 51023
Loading
Personal Weather Stations






























Interactive Weather Map New forecast layout! Learn more

10-Day Weather Forecast

Advertisements
Track Severe Weather on mobile